Time;durP1;ratioP1;P1;durP2;ratioP2;P2;SDS_P1;SDS_P2;PMS_P1;PMS_P2;Temp;Humidity;BMP_temperature;BMP_pressure;BME280_temperature;BME280_humidity;BME280_pressure;Samples;Min_cycle;Max_cycle;Signal;HPM_P1;HPM_P2
2024/02/01 00:00:53;;;;;;;0.60;0.60;;;16.40;69.60;;;;;;5007100;28;20503;-84
2024/02/01 00:03:18;;;;;;;0.82;0.80;;;16.40;69.60;;;;;;5022060;28;20045;-82
2024/02/01 00:05:44;;;;;;;0.70;0.70;;;16.40;69.60;;;;;;5022469;28;20089;-83
2024/02/01 00:08:09;;;;;;;0.60;0.60;;;16.40;69.60;;;;;;4974374;28;20068;-83
2024/02/01 00:10:35;;;;;;;0.70;0.70;;;16.40;69.60;;;;;;5004738;28;20074;-83
2024/02/01 00:13:01;;;;;;;0.60;0.60;;;16.40;69.60;;;;;;5016406;28;20518;-83
2024/02/01 00:15:26;;;;;;;0.50;0.50;;;16.40;69.60;;;;;;5019203;28;20393;-82
2024/02/01 00:17:52;;;;;;;0.80;0.80;;;16.40;69.60;;;;;;5022314;28;20045;-83
2024/02/01 00:20:17;;;;;;;0.80;0.80;;;16.40;69.60;;;;;;5021231;28;20515;-82
2024/02/01 00:22:43;;;;;;;0.60;0.60;;;16.40;69.60;;;;;;5023680;28;20077;-83
2024/02/01 00:25:08;;;;;;;0.50;0.50;;;16.40;69.60;;;;;;5022750;28;20049;-83
2024/02/01 00:27:34;;;;;;;0.70;0.70;;;16.40;69.60;;;;;;5019013;28;20095;-83
2024/02/01 00:30:01;;;;;;;0.60;0.60;;;16.40;69.60;;;;;;5053321;28;20554;-83
2024/02/01 00:32:26;;;;;;;0.45;0.45;;;16.40;69.60;;;;;;5019995;28;20045;-83
2024/02/01 00:34:52;;;;;;;0.65;0.65;;;16.30;69.50;;;;;;5025893;28;20058;-83
2024/02/01 00:37:17;;;;;;;0.50;0.50;;;16.30;69.50;;;;;;5011592;28;20048;-83
2024/02/01 00:39:43;;;;;;;0.60;0.60;;;16.40;69.60;;;;;;5024262;28;20328;-83
2024/02/01 00:42:08;;;;;;;0.88;0.55;;;16.40;69.50;;;;;;5024097;28;20042;-83
2024/02/01 00:44:34;;;;;;;0.82;0.82;;;16.40;69.60;;;;;;5025069;28;20038;-82
2024/02/01 00:47:00;;;;;;;0.50;0.50;;;16.30;69.50;;;;;;5014298;28;20561;-82
2024/02/01 00:49:26;;;;;;;0.57;0.57;;;16.40;69.50;;;;;;5059994;28;20049;-82
2024/02/01 00:51:51;;;;;;;0.50;0.50;;;16.30;69.50;;;;;;5028157;28;20049;-85
2024/02/01 00:54:17;;;;;;;1.02;0.52;;;16.30;69.40;;;;;;5005818;28;20038;-84
2024/02/01 00:56:42;;;;;;;0.60;0.57;;;16.30;69.50;;;;;;5024332;28;20091;-82
2024/02/01 00:59:08;;;;;;;0.50;0.50;;;16.40;69.50;;;;;;5002433;28;20041;-83
2024/02/01 01:01:34;;;;;;;1.13;0.70;;;16.30;69.50;;;;;;5008408;28;20518;-83
2024/02/01 01:03:59;;;;;;;0.68;0.60;;;16.30;69.50;;;;;;5020209;28;20435;-83
2024/02/01 01:06:25;;;;;;;0.55;0.50;;;16.30;70.40;;;;;;5026149;28;20049;-83
2024/02/01 01:08:50;;;;;;;0.60;0.60;;;16.30;69.50;;;;;;5026330;28;20052;-83
2024/02/01 01:11:16;;;;;;;0.60;0.60;;;16.30;69.40;;;;;;5017392;28;20034;-83
2024/02/01 01:13:42;;;;;;;0.45;0.45;;;16.30;69.50;;;;;;4989786;28;20441;-82
2024/02/01 01:16:07;;;;;;;0.60;0.60;;;16.30;69.50;;;;;;5009053;28;20040;-82
2024/02/01 01:18:33;;;;;;;0.40;0.40;;;16.30;69.50;;;;;;5026564;28;20086;-82
2024/02/01 01:20:58;;;;;;;0.43;0.43;;;16.30;69.50;;;;;;5003811;28;20037;-82
2024/02/01 01:23:24;;;;;;;0.60;0.60;;;16.30;69.40;;;;;;5055289;28;20176;-82
2024/02/01 01:25:50;;;;;;;0.40;0.40;;;16.30;69.50;;;;;;5009827;28;20053;-82
2024/02/01 01:28:15;;;;;;;0.60;0.40;;;16.30;69.50;;;;;;5007694;28;20530;-83
2024/02/01 01:30:41;;;;;;;0.60;0.60;;;16.30;69.50;;;;;;5048112;28;20056;-82
2024/02/01 01:33:07;;;;;;;0.40;0.40;;;16.30;69.50;;;;;;5055085;28;20578;-83
2024/02/01 01:35:32;;;;;;;0.57;0.57;;;16.30;69.40;;;;;;5010097;28;20050;-84
2024/02/01 01:37:58;;;;;;;0.50;0.50;;;16.30;69.50;;;;;;5022818;28;20175;-84
2024/02/01 01:40:24;;;;;;;0.60;0.60;;;16.30;69.50;;;;;;5024104;28;20519;-84
2024/02/01 01:42:50;;;;;;;1.02;0.50;;;16.30;69.50;;;;;;5023988;28;20046;-82
2024/02/01 01:45:16;;;;;;;0.60;0.60;;;16.30;69.50;;;;;;4975146;28;20038;-82
2024/02/01 01:47:41;;;;;;;0.52;0.52;;;16.30;69.50;;;;;;4973538;28;20502;-85
2024/02/01 01:50:07;;;;;;;1.17;0.60;;;16.30;69.60;;;;;;4977120;28;20034;-85
2024/02/01 01:52:33;;;;;;;0.50;0.50;;;16.30;69.50;;;;;;5016882;28;20045;-84
2024/02/01 01:54:59;;;;;;;0.60;0.60;;;16.30;69.60;;;;;;5025038;28;20041;-85
2024/02/01 01:57:28;;;;;;;0.50;0.50;;;16.30;69.50;;;;;;5007903;28;20503;-84
2024/02/01 01:59:54;;;;;;;0.52;0.50;;;16.30;69.50;;;;;;5013952;28;20564;-85
2024/02/01 02:02:20;;;;;;;0.60;0.50;;;16.30;70.30;;;;;;5008106;28;20053;-85
2024/02/01 02:04:45;;;;;;;0.40;0.40;;;16.30;69.60;;;;;;5005646;28;20061;-85
2024/02/01 02:07:11;;;;;;;0.60;0.60;;;16.30;69.70;;;;;;5020680;28;20099;-85
2024/02/01 02:09:37;;;;;;;0.52;0.52;;;16.30;69.60;;;;;;4991090;28;20049;-85
2024/02/01 02:12:04;;;;;;;0.60;0.60;;;16.30;69.60;;;;;;5001908;28;20046;-85
2024/02/01 02:14:29;;;;;;;0.47;0.47;;;16.30;69.70;;;;;;5016912;28;20037;-85
2024/02/01 02:16:55;;;;;;;0.60;0.60;;;16.30;70.40;;;;;;5023997;28;20067;-85
2024/02/01 02:19:20;;;;;;;0.40;0.40;;;16.30;69.70;;;;;;5026894;28;20053;-85
2024/02/01 02:21:47;;;;;;;0.43;0.43;;;16.30;69.70;;;;;;5024978;28;20050;-85
2024/02/01 02:24:19;;;;;;;1.05;0.60;;;16.30;69.70;;;;;;5023109;28;20478;-85
2024/02/01 02:26:45;;;;;;;0.45;0.45;;;16.30;69.60;;;;;;5022976;28;20054;-84
2024/02/01 02:29:14;;;;;;;0.40;0.40;;;16.30;69.70;;;;;;5009971;28;20029;-82
2024/02/01 02:31:40;;;;;;;0.70;0.57;;;16.20;69.60;;;;;;5022741;28;20053;-83
2024/02/01 02:34:06;;;;;;;0.40;0.40;;;16.30;69.60;;;;;;5019202;28;20047;-81
2024/02/01 02:36:32;;;;;;;0.50;0.50;;;16.30;69.70;;;;;;5004907;28;20044;-81
2024/02/01 02:38:57;;;;;;;0.32;0.32;;;16.20;69.60;;;;;;5006267;28;20116;-82
2024/02/01 02:41:23;;;;;;;0.50;0.50;;;16.20;69.70;;;;;;5014043;28;20065;-82
2024/02/01 02:43:48;;;;;;;0.98;0.50;;;16.20;69.70;;;;;;5006639;28;20060;-82
2024/02/01 02:46:14;;;;;;;0.50;0.50;;;16.20;69.70;;;;;;5024671;28;20887;-81
2024/02/01 02:48:40;;;;;;;0.52;0.52;;;16.20;69.80;;;;;;5023520;28;20041;-82
2024/02/01 02:51:05;;;;;;;0.50;0.50;;;16.20;69.80;;;;;;5019772;28;20045;-81
2024/02/01 02:53:31;;;;;;;0.60;0.50;;;16.20;69.70;;;;;;5021672;28;20037;-81
2024/02/01 02:55:58;;;;;;;0.38;0.38;;;16.20;69.80;;;;;;5004557;28;20522;-82
2024/02/01 02:58:24;;;;;;;0.40;0.40;;;16.20;69.80;;;;;;5020405;28;20103;-82
2024/02/01 03:00:50;;;;;;;0.40;0.40;;;16.20;69.80;;;;;;5007123;28;20057;-85
2024/02/01 03:03:16;;;;;;;0.50;0.50;;;16.20;69.80;;;;;;5020735;28;20043;-83
2024/02/01 03:05:41;;;;;;;0.50;0.50;;;16.20;69.80;;;;;;5014087;28;20050;-82
2024/02/01 03:08:09;;;;;;;0.32;0.32;;;16.20;69.80;;;;;;4984722;28;20038;-83
2024/02/01 03:10:35;;;;;;;0.60;0.60;;;16.20;69.80;;;;;;5034524;28;20045;-82
2024/02/01 03:13:01;;;;;;;0.47;0.47;;;16.20;69.80;;;;;;5024291;28;20042;-82
2024/02/01 03:15:29;;;;;;;0.40;0.40;;;16.20;69.80;;;;;;5036671;28;20052;-84
2024/02/01 03:17:56;;;;;;;0.30;0.30;;;16.20;69.80;;;;;;5040568;28;20104;-85
2024/02/01 03:20:25;;;;;;;0.45;0.45;;;16.20;69.90;;;;;;4995980;28;20052;-85
2024/02/01 03:22:56;;;;;;;0.90;0.40;;;16.20;69.90;;;;;;5007046;28;20057;-82
2024/02/01 03:25:28;;;;;;;0.55;0.43;;;16.20;70.00;;;;;;5024359;28;20534;-82
2024/02/01 03:28:00;;;;;;;0.60;0.50;;;16.20;69.80;;;;;;5022087;28;20550;-85
2024/02/01 03:30:32;;;;;;;0.40;0.40;;;16.20;69.80;;;;;;5020306;28;20098;-85
2024/02/01 03:33:01;;;;;;;0.40;0.40;;;16.20;69.80;;;;;;5016308;28;20113;-85
2024/02/01 03:35:27;;;;;;;0.50;0.50;;;16.20;69.80;;;;;;4996232;28;20046;-84
2024/02/01 03:37:53;;;;;;;0.47;0.40;;;16.20;69.90;;;;;;4983964;28;25457;-85
2024/02/01 03:40:19;;;;;;;0.40;0.40;;;16.20;69.90;;;;;;5002286;28;20633;-86
2024/02/01 03:42:48;;;;;;;0.40;0.40;;;16.20;69.90;;;;;;5021644;28;20057;-86
2024/02/01 03:45:14;;;;;;;0.40;0.40;;;16.20;69.90;;;;;;5019638;28;20034;-84
2024/02/01 03:47:39;;;;;;;0.40;0.40;;;16.20;69.90;;;;;;5023338;28;20048;-83
2024/02/01 03:50:08;;;;;;;0.50;0.50;;;16.20;69.90;;;;;;5024760;28;20045;-85
2024/02/01 03:52:38;;;;;;;0.52;0.38;;;16.20;69.90;;;;;;5023986;28;20049;-84
2024/02/01 03:55:16;;;;;;;0.55;0.40;;;16.20;69.90;;;;;;5024210;28;20538;-85
2024/02/01 03:57:47;;;;;;;0.50;0.50;;;16.20;70.00;;;;;;4991090;28;20060;-85
2024/02/01 04:00:25;;;;;;;0.60;0.60;;;16.20;70.00;;;;;;4987209;28;20677;-86
2024/02/01 04:02:57;;;;;;;0.40;0.40;;;16.20;70.00;;;;;;5007707;28;20042;-86
2024/02/01 04:05:26;;;;;;;0.40;0.40;;;16.20;70.10;;;;;;5050401;28;20050;-85
2024/02/01 04:07:55;;;;;;;0.80;0.77;;;16.20;70.10;;;;;;5037321;28;20490;-84
2024/02/01 04:10:20;;;;;;;0.63;0.60;;;16.20;70.10;;;;;;5025882;28;20103;-83
2024/02/01 04:12:46;;;;;;;0.30;0.30;;;16.20;70.10;;;;;;5020610;28;20037;-82
2024/02/01 04:15:11;;;;;;;0.52;0.52;;;16.20;70.00;;;;;;5032749;28;20060;-82
2024/02/01 04:17:37;;;;;;;0.60;0.60;;;16.20;70.10;;;;;;5023595;28;20541;-84
2024/02/01 04:20:05;;;;;;;0.80;0.60;;;16.20;70.90;;;;;;5023465;28;20068;-84
2024/02/01 04:22:31;;;;;;;0.45;0.40;;;16.20;70.10;;;;;;5000291;28;20042;-85
2024/02/01 04:24:56;;;;;;;0.40;0.40;;;16.20;70.10;;;;;;5020576;28;20045;-86
2024/02/01 04:27:22;;;;;;;1.95;0.50;;;16.20;70.10;;;;;;5023753;28;20103;-86
2024/02/01 04:29:48;;;;;;;0.60;0.60;;;16.20;70.10;;;;;;5021991;28;20503;-86
2024/02/01 04:32:13;;;;;;;0.95;0.50;;;16.20;70.10;;;;;;5007166;28;20040;-86
2024/02/01 04:34:39;;;;;;;0.60;0.60;;;16.20;70.10;;;;;;4990214;28;20446;-82
2024/02/01 04:37:05;;;;;;;0.80;0.80;;;16.20;70.10;;;;;;5023874;28;20072;-83
2024/02/01 04:39:32;;;;;;;0.40;0.40;;;16.20;70.20;;;;;;5022520;28;20422;-84
2024/02/01 04:42:14;;;;;;;0.70;0.70;;;16.20;70.50;;;;;;4982082;28;20406;-84
2024/02/01 04:44:40;;;;;;;0.70;0.70;;;16.20;70.50;;;;;;5000851;28;20125;-85
2024/02/01 04:47:06;;;;;;;0.60;0.60;;;16.20;70.30;;;;;;5012824;28;20124;-85
2024/02/01 04:49:31;;;;;;;0.43;0.43;;;16.20;70.40;;;;;;5016260;28;20113;-85
2024/02/01 04:51:57;;;;;;;0.32;0.32;;;16.20;70.30;;;;;;4999457;28;20066;-84
2024/02/01 04:54:23;;;;;;;0.50;0.50;;;16.20;70.30;;;;;;4995970;28;20038;-83
2024/02/01 04:56:48;;;;;;;0.47;0.47;;;16.20;70.40;;;;;;4985293;28;20779;-84
2024/02/01 04:59:14;;;;;;;0.52;0.28;;;16.20;70.40;;;;;;4999386;28;20046;-83
2024/02/01 05:01:40;;;;;;;0.60;0.60;;;16.20;70.30;;;;;;5009576;28;20180;-82
2024/02/01 05:04:13;;;;;;;0.75;0.47;;;16.20;70.50;;;;;;5022290;28;20144;-83
2024/02/01 05:06:39;;;;;;;0.40;0.40;;;16.20;70.60;;;;;;5020152;28;20053;-82
2024/02/01 05:09:23;;;;;;;0.50;0.45;;;16.20;70.60;;;;;;5002877;28;20049;-83
2024/02/01 05:11:54;;;;;;;0.40;0.40;;;16.20;70.50;;;;;;5004617;28;20570;-83
2024/02/01 05:14:20;;;;;;;0.95;0.50;;;16.20;70.50;;;;;;5036642;28;20041;-82
2024/02/01 05:16:47;;;;;;;0.50;0.50;;;16.20;71.20;;;;;;5010635;28;20196;-82
2024/02/01 05:19:13;;;;;;;0.40;0.40;;;16.20;70.50;;;;;;5028889;28;20565;-83
2024/02/01 05:21:39;;;;;;;0.60;0.60;;;16.10;70.40;;;;;;5018945;28;20037;-84
2024/02/01 05:24:05;;;;;;;0.40;0.40;;;16.10;70.40;;;;;;5023028;28;20415;-83
2024/02/01 05:26:31;;;;;;;0.45;0.45;;;16.10;70.40;;;;;;5023556;28;20052;-82
2024/02/01 05:28:57;;;;;;;0.40;0.40;;;16.20;70.50;;;;;;5024898;28;20085;-83
2024/02/01 05:31:22;;;;;;;0.50;0.50;;;16.10;70.40;;;;;;5011327;28;20577;-82
2024/02/01 05:33:48;;;;;;;0.45;0.45;;;16.20;70.50;;;;;;4992985;28;20042;-83
2024/02/01 05:36:13;;;;;;;0.65;0.40;;;16.10;70.50;;;;;;5026861;28;20561;-82
2024/02/01 05:38:39;;;;;;;0.32;0.32;;;16.10;70.50;;;;;;5025904;28;20044;-82
2024/02/01 05:41:13;;;;;;;0.98;0.52;;;16.10;70.40;;;;;;5010378;28;20106;-82
2024/02/01 05:43:39;;;;;;;0.60;0.60;;;16.20;70.50;;;;;;5017380;28;20049;-82
2024/02/01 05:46:09;;;;;;;0.47;0.40;;;16.10;70.50;;;;;;5026527;28;20103;-83
2024/02/01 05:48:35;;;;;;;0.40;0.40;;;16.10;70.40;;;;;;5025331;28;20048;-84
2024/02/01 05:51:01;;;;;;;0.60;0.60;;;16.10;70.40;;;;;;5010144;28;20577;-84
2024/02/01 05:53:27;;;;;;;0.40;0.40;;;16.10;70.40;;;;;;5027067;28;20045;-82
2024/02/01 05:55:52;;;;;;;0.65;0.60;;;16.10;70.40;;;;;;5024296;28;20406;-82
2024/02/01 05:58:18;;;;;;;0.60;0.50;;;16.10;70.40;;;;;;5027720;28;20045;-82
2024/02/01 06:00:43;;;;;;;0.43;0.43;;;16.10;70.50;;;;;;5024793;28;20037;-82
2024/02/01 06:03:09;;;;;;;0.57;0.57;;;16.10;70.50;;;;;;5026030;28;20042;-83
2024/02/01 06:05:34;;;;;;;0.30;0.30;;;16.10;70.50;;;;;;5023615;28;20209;-84
2024/02/01 06:08:01;;;;;;;0.55;0.28;;;16.10;70.50;;;;;;5025281;28;20061;-83
2024/02/01 06:10:26;;;;;;;0.47;0.47;;;16.10;70.50;;;;;;5028431;28;20046;-84
2024/02/01 06:12:52;;;;;;;0.63;0.40;;;16.10;71.30;;;;;;5022842;28;20121;-83
2024/02/01 06:15:18;;;;;;;0.30;0.30;;;16.20;70.50;;;;;;5024730;28;20056;-84
2024/02/01 06:17:44;;;;;;;0.40;0.40;;;16.10;70.50;;;;;;5025685;28;20037;-84
2024/02/01 06:20:10;;;;;;;0.40;0.32;;;16.20;70.50;;;;;;5023433;28;20045;-82
2024/02/01 06:22:36;;;;;;;0.45;0.45;;;16.10;70.40;;;;;;5026491;28;20045;-81
2024/02/01 06:25:03;;;;;;;0.55;0.38;;;16.10;70.50;;;;;;5022249;28;20499;-82
2024/02/01 06:27:28;;;;;;;0.40;0.40;;;16.20;70.70;;;;;;4662685;28;9999629;-82
2024/02/01 06:29:54;;;;;;;0.90;0.90;;;16.20;70.80;;;;;;5016816;28;20049;-83
2024/02/01 06:32:20;;;;;;;0.85;0.80;;;16.20;71.40;;;;;;5019552;28;20045;-82
2024/02/01 06:34:53;;;;;;;0.68;0.68;;;16.20;71.30;;;;;;4987532;28;20042;-82
2024/02/01 06:37:20;;;;;;;1.17;0.77;;;16.20;71.40;;;;;;5002190;28;20066;-80
2024/02/01 06:40:10;;;;;;;0.80;0.80;;;16.20;71.40;;;;;;5017735;28;20172;-81
2024/02/01 06:42:44;;;;;;;0.50;0.50;;;16.20;71.30;;;;;;5018488;28;20037;-82
2024/02/01 06:45:24;;;;;;;0.50;0.50;;;16.20;71.30;;;;;;5020433;28;20107;-79
2024/02/01 06:47:50;;;;;;;2.05;0.60;;;16.20;71.30;;;;;;5006922;28;20906;-80
2024/02/01 06:50:24;;;;;;;0.68;0.68;;;16.10;71.20;;;;;;4997279;28;20049;-79
2024/02/01 06:52:49;;;;;;;0.68;0.68;;;16.20;71.30;;;;;;5019897;28;20152;-80
2024/02/01 06:55:36;;;;;;;0.63;0.40;;;16.20;71.20;;;;;;5022904;28;20176;-80
2024/02/01 07:00:51;;;;;;;0.43;0.43;;;16.20;71.10;;;;;;5022669;28;20098;-80
2024/02/01 07:11:59;;;;;;;0.60;0.50;;;16.20;70.90;;;;;;5016739;28;20056;-80
2024/02/01 07:19:12;;;;;;;0.55;0.50;;;16.20;70.70;;;;;;5005971;28;20810;-79
2024/02/01 07:22:00;;;;;;;0.68;0.57;;;16.20;70.50;;;;;;5019077;28;20049;-78
2024/02/01 08:00:00;;;;;;;1.52;0.63;;;16.30;72.10;;;;;;5005039;28;20048;-80
2024/02/01 08:07:55;;;;;;;1.17;0.60;;;16.20;71.90;;;;;;5020492;28;20032;-80
2024/02/01 08:10:21;;;;;;;1.17;0.70;;;16.20;71.90;;;;;;5024562;28;20042;-80
2024/02/01 08:12:47;;;;;;;0.55;0.50;;;16.20;71.90;;;;;;4997247;28;20046;-80
2024/02/01 08:15:18;;;;;;;0.60;0.60;;;16.20;71.90;;;;;;5001798;28;20045;-80
2024/02/01 08:17:47;;;;;;;1.00;0.50;;;16.20;71.80;;;;;;4996056;28;20107;-80
2024/02/01 08:20:14;;;;;;;2.05;0.70;;;16.20;71.90;;;;;;5022361;28;20041;-80
2024/02/01 08:22:41;;;;;;;1.33;0.70;;;16.20;71.80;;;;;;5023371;28;20028;-80
2024/02/01 08:25:08;;;;;;;1.75;0.50;;;16.20;71.70;;;;;;5022669;28;20054;-80
2024/02/01 08:27:34;;;;;;;0.70;0.60;;;16.20;71.70;;;;;;5006606;28;20128;-80
2024/02/01 08:30:12;;;;;;;0.63;0.63;;;16.20;71.80;;;;;;5002184;28;20056;-80
2024/02/01 08:32:39;;;;;;;0.82;0.75;;;16.20;71.80;;;;;;5021177;28;20128;-80
2024/02/01 08:35:10;;;;;;;0.80;0.70;;;16.20;71.70;;;;;;5005438;28;20061;-81
2024/02/01 08:37:41;;;;;;;0.63;0.63;;;16.20;71.70;;;;;;5024298;28;20414;-80
2024/02/01 08:40:17;;;;;;;0.77;0.77;;;16.20;71.60;;;;;;5024334;28;20104;-80
2024/02/01 08:42:48;;;;;;;1.00;0.70;;;16.20;71.70;;;;;;5004744;28;20697;-80
2024/02/01 08:45:15;;;;;;;0.52;0.52;;;16.20;71.50;;;;;;5014101;28;20403;-80
2024/02/01 08:47:41;;;;;;;0.90;0.63;;;16.20;71.50;;;;;;5006755;28;20080;-80
2024/02/01 08:50:09;;;;;;;0.50;0.50;;;16.20;71.40;;;;;;5021784;28;20504;-81
2024/02/01 08:52:44;;;;;;;0.60;0.55;;;16.20;71.70;;;;;;5028182;28;20072;-80
2024/02/01 08:55:10;;;;;;;0.77;0.70;;;16.20;71.50;;;;;;5026768;28;20144;-80
2024/02/01 08:57:37;;;;;;;0.80;0.80;;;16.20;71.50;;;;;;5024268;28;20057;-80
2024/02/01 09:00:21;;;;;;;1.73;0.75;;;16.20;71.70;;;;;;5023784;28;20034;-80
2024/02/01 09:03:03;;;;;;;0.60;0.60;;;16.20;71.70;;;;;;5012104;28;20050;-80
2024/02/01 09:05:32;;;;;;;0.50;0.50;;;16.20;71.40;;;;;;5023704;28;20120;-81
2024/02/01 09:07:59;;;;;;;1.00;0.68;;;16.20;71.60;;;;;;5025079;28;20081;-80
2024/02/01 09:10:24;;;;;;;0.95;0.50;;;16.20;71.40;;;;;;5011683;28;20114;-81
2024/02/01 09:12:50;;;;;;;0.65;0.65;;;16.20;71.50;;;;;;5022548;28;20095;-80
2024/02/01 09:15:15;;;;;;;0.77;0.70;;;16.20;71.40;;;;;;5025451;28;20052;-80
2024/02/01 09:17:46;;;;;;;0.80;0.70;;;16.20;71.50;;;;;;5023982;28;20048;-80
2024/02/01 09:20:18;;;;;;;0.60;0.60;;;16.20;71.50;;;;;;5022004;28;20050;-80
2024/02/01 09:22:48;;;;;;;0.50;0.50;;;16.20;71.50;;;;;;5024873;28;20049;-81
2024/02/01 09:25:15;;;;;;;0.55;0.55;;;16.20;71.50;;;;;;5026064;28;20499;-80
2024/02/01 09:27:44;;;;;;;0.50;0.50;;;16.10;71.60;;;;;;5010475;28;20645;-80
2024/02/01 09:30:11;;;;;;;1.17;0.70;;;16.20;71.40;;;;;;5023596;28;20043;-80
2024/02/01 09:32:38;;;;;;;0.77;0.50;;;16.20;71.40;;;;;;5022933;28;20041;-80
2024/02/01 09:35:04;;;;;;;0.85;0.60;;;16.20;71.50;;;;;;5024387;28;20527;-80
2024/02/01 09:37:29;;;;;;;0.75;0.75;;;16.20;71.60;;;;;;5027403;28;20034;-80
2024/02/01 09:40:00;;;;;;;0.60;0.60;;;16.20;71.40;;;;;;5023205;28;20037;-80
2024/02/01 09:42:25;;;;;;;0.73;0.50;;;16.20;71.60;;;;;;5025643;28;20095;-80
2024/02/01 09:44:51;;;;;;;1.42;0.60;;;16.20;71.40;;;;;;5026094;28;20050;-79
2024/02/01 09:47:16;;;;;;;0.85;0.60;;;16.20;71.40;;;;;;4995537;28;20034;-80
2024/02/01 09:49:42;;;;;;;0.70;0.60;;;16.20;71.40;;;;;;4990014;28;20045;-80
2024/02/01 09:52:10;;;;;;;0.40;0.40;;;16.20;71.40;;;;;;5016426;28;20044;-80
2024/02/01 09:54:36;;;;;;;0.40;0.40;;;16.20;71.40;;;;;;5008947;28;20096;-81
2024/02/01 09:57:03;;;;;;;0.60;0.50;;;16.20;71.50;;;;;;5020433;28;20045;-80
2024/02/01 09:59:35;;;;;;;1.88;0.52;;;16.20;71.40;;;;;;5018997;28;20037;-80
2024/02/01 10:02:02;;;;;;;0.82;0.80;;;16.20;71.80;;;;;;4990909;28;20053;-80
2024/02/01 10:04:27;;;;;;;0.55;0.50;;;16.20;71.40;;;;;;4994271;28;20037;-80
2024/02/01 10:06:53;;;;;;;0.60;0.60;;;16.20;71.40;;;;;;5023498;28;20087;-80
2024/02/01 10:09:21;;;;;;;1.50;0.68;;;16.20;71.40;;;;;;5009931;28;20092;-81
2024/02/01 10:11:50;;;;;;;0.98;0.70;;;16.20;72.10;;;;;;4993144;28;20057;-80
2024/02/01 10:14:15;;;;;;;0.60;0.50;;;16.20;71.40;;;;;;5004276;28;20087;-80
2024/02/01 10:16:41;;;;;;;1.02;0.50;;;16.20;71.40;;;;;;5009247;28;20458;-79
2024/02/01 10:19:09;;;;;;;0.32;0.32;;;16.20;71.60;;;;;;5023819;28;20423;-80
2024/02/01 10:21:35;;;;;;;0.57;0.40;;;16.20;71.40;;;;;;5024950;28;21148;-80
2024/02/01 10:24:04;;;;;;;0.50;0.50;;;16.20;71.40;;;;;;4991983;28;20512;-80
2024/02/01 10:26:30;;;;;;;0.52;0.52;;;16.20;71.40;;;;;;5019060;28;20057;-80
2024/02/01 10:28:58;;;;;;;5.95;0.70;;;16.20;71.50;;;;;;5005111;28;20034;-80
2024/02/01 10:31:24;;;;;;;1.50;0.70;;;16.20;71.40;;;;;;5007877;28;20407;-80
2024/02/01 10:33:49;;;;;;;0.77;0.77;;;16.20;72.20;;;;;;5008003;28;20581;-80
2024/02/01 10:36:21;;;;;;;0.60;0.60;;;16.20;71.80;;;;;;4992226;28;20041;-80
2024/02/01 10:38:49;;;;;;;0.95;0.60;;;16.20;71.40;;;;;;4991115;28;20041;-80
2024/02/01 10:41:17;;;;;;;0.50;0.50;;;16.20;71.40;;;;;;5002945;28;20046;-80
2024/02/01 10:43:45;;;;;;;0.63;0.63;;;16.20;71.40;;;;;;4989010;28;20056;-80
2024/02/01 10:46:12;;;;;;;1.30;0.65;;;16.20;71.40;;;;;;4988525;28;20049;-80
2024/02/01 10:49:02;;;;;;;0.40;0.40;;;16.20;71.40;;;;;;5018161;28;20053;-80
2024/02/01 10:51:27;;;;;;;0.52;0.52;;;16.20;71.40;;;;;;5001120;28;20046;-79
2024/02/01 10:53:53;;;;;;;0.50;0.50;;;16.20;71.40;;;;;;4986020;28;20049;-80
2024/02/01 10:56:19;;;;;;;0.45;0.45;;;16.20;71.40;;;;;;5009998;28;20047;-80
2024/02/01 10:58:46;;;;;;;0.73;0.52;;;16.20;72.20;;;;;;5025712;28;20065;-80
2024/02/01 11:01:13;;;;;;;2.47;1.15;;;16.20;71.40;;;;;;5026136;28;20045;-80
2024/02/01 11:03:51;;;;;;;0.45;0.45;;;16.20;71.40;;;;;;5022570;28;20057;-79
2024/02/01 11:06:17;;;;;;;2.35;0.60;;;16.20;71.40;;;;;;5013365;28;20503;-79
2024/02/01 11:08:45;;;;;;;0.50;0.50;;;16.20;71.50;;;;;;5021186;28;20500;-79
2024/02/01 11:11:16;;;;;;;0.73;0.50;;;16.30;71.20;;;;;;5022968;28;20516;-80
2024/02/01 11:13:46;;;;;;;0.85;0.40;;;16.30;71.00;;;;;;5024177;28;20569;-80
2024/02/01 11:16:11;;;;;;;0.50;0.50;;;16.30;71.10;;;;;;5024123;28;20471;-79
2024/02/01 11:18:49;;;;;;;1.13;0.40;;;16.30;71.50;;;;;;5025001;28;20515;-80
2024/02/01 11:21:24;;;;;;;0.35;0.35;;;16.30;71.50;;;;;;5021349;28;20050;-79
2024/02/01 11:23:49;;;;;;;1.77;0.40;;;16.30;71.30;;;;;;5021943;28;20042;-79
2024/02/01 11:26:16;;;;;;;0.75;0.60;;;16.30;71.40;;;;;;5023503;28;20111;-80
2024/02/01 11:28:47;;;;;;;0.50;0.50;;;16.20;71.50;;;;;;5023755;28;20045;-80
2024/02/01 11:31:15;;;;;;;1.75;0.50;;;16.20;71.40;;;;;;5022845;28;20042;-79
2024/02/01 11:33:42;;;;;;;0.30;0.30;;;16.20;71.30;;;;;;5021800;28;20045;-80
2024/02/01 11:36:08;;;;;;;0.60;0.40;;;16.20;71.30;;;;;;5018983;28;20049;-79
2024/02/01 11:38:33;;;;;;;0.80;0.50;;;16.20;71.30;;;;;;5024032;28;20037;-79
2024/02/01 11:41:00;;;;;;;0.40;0.40;;;16.30;71.20;;;;;;5020241;28;20427;-80
2024/02/01 11:43:25;;;;;;;1.10;0.70;;;16.20;71.20;;;;;;5026101;28;20060;-80
2024/02/01 11:45:54;;;;;;;0.93;0.50;;;16.30;71.30;;;;;;5022788;28;20045;-79
2024/02/01 11:48:23;;;;;;;0.50;0.50;;;16.30;71.30;;;;;;5019777;28;20080;-79
2024/02/01 11:50:57;;;;;;;0.43;0.43;;;16.30;71.10;;;;;;5021074;28;20041;-80
2024/02/01 11:53:23;;;;;;;0.43;0.43;;;16.30;71.20;;;;;;5003669;28;20049;-80
2024/02/01 11:55:54;;;;;;;0.40;0.40;;;16.20;71.10;;;;;;5013875;28;20048;-80
2024/02/01 11:58:24;;;;;;;0.40;0.40;;;16.20;71.10;;;;;;5008015;28;20089;-79
2024/02/01 12:00:51;;;;;;;0.40;0.40;;;16.20;71.20;;;;;;5022713;28;20041;-80
2024/02/01 12:03:19;;;;;;;0.70;0.30;;;16.30;71.30;;;;;;5034850;28;20041;-79
2024/02/01 12:05:45;;;;;;;0.40;0.40;;;16.30;71.10;;;;;;5023014;28;20069;-79
2024/02/01 12:08:10;;;;;;;0.75;0.45;;;16.20;71.10;;;;;;5002073;28;20046;-80
2024/02/01 12:10:37;;;;;;;0.65;0.40;;;16.20;70.90;;;;;;5004417;28;20630;-79
2024/02/01 12:13:03;;;;;;;0.75;0.52;;;16.30;71.00;;;;;;5007207;28;20496;-80
2024/02/01 12:15:29;;;;;;;0.38;0.38;;;16.30;71.40;;;;;;5001746;28;20041;-81
2024/02/01 12:17:56;;;;;;;0.35;0.35;;;16.30;71.70;;;;;;5011785;28;20666;-79
2024/02/01 12:20:28;;;;;;;0.57;0.52;;;16.30;72.10;;;;;;4997895;28;20103;-80
2024/02/01 12:22:57;;;;;;;1.45;0.57;;;16.40;73.00;;;;;;5022269;28;20459;-81
2024/02/01 12:25:23;;;;;;;3.03;0.75;;;16.50;73.30;;;;;;5017290;28;20529;-79
2024/02/01 12:27:48;;;;;;;1.02;0.73;;;16.50;73.10;;;;;;5006386;28;20053;-79
2024/02/01 12:30:14;;;;;;;1.35;1.25;;;16.40;75.20;;;;;;5016425;28;20818;-80
2024/02/01 12:32:46;;;;;;;1.90;1.10;;;16.40;74.90;;;;;;5022431;28;20033;-80
2024/02/01 12:35:12;;;;;;;1.20;1.10;;;16.40;75.50;;;;;;5019033;28;20058;-79
2024/02/01 12:37:40;;;;;;;1.23;0.82;;;16.40;75.40;;;;;;5023330;28;20053;-83
2024/02/01 12:40:11;;;;;;;0.77;0.60;;;16.40;75.70;;;;;;5023626;28;20040;-84
2024/02/01 12:42:38;;;;;;;1.08;0.90;;;16.40;75.50;;;;;;5021441;28;20092;-84
2024/02/01 12:45:04;;;;;;;1.45;0.77;;;16.40;75.80;;;;;;4986553;28;20046;-84
2024/02/01 12:47:33;;;;;;;0.90;0.70;;;16.40;75.00;;;;;;5005927;28;20044;-86
2024/02/01 12:49:59;;;;;;;0.80;0.50;;;16.40;76.00;;;;;;4660878;28;10000567;-84
2024/02/01 12:52:25;;;;;;;0.80;0.57;;;16.50;76.50;;;;;;5020327;28;20061;-84
2024/02/01 12:54:50;;;;;;;1.20;0.50;;;16.50;75.40;;;;;;5003657;28;20095;-84
2024/02/01 12:57:21;;;;;;;1.67;0.47;;;16.50;75.30;;;;;;4993228;28;20056;-85
2024/02/01 12:59:47;;;;;;;0.55;0.55;;;16.40;75.20;;;;;;5006180;28;20629;-84
2024/02/01 13:02:12;;;;;;;2.17;0.43;;;16.50;75.80;;;;;;5007704;28;20066;-84
2024/02/01 13:04:39;;;;;;;0.52;0.52;;;16.40;75.70;;;;;;5026239;28;20053;-85
2024/02/01 13:07:11;;;;;;;1.23;0.70;;;16.50;74.90;;;;;;5023175;28;20034;-84
2024/02/01 13:09:38;;;;;;;2.00;0.60;;;16.50;75.00;;;;;;5022361;28;20145;-85
2024/02/01 13:12:18;;;;;;;1.52;0.50;;;16.50;74.40;;;;;;5020703;28;20046;-87
2024/02/01 13:14:57;;;;;;;2.05;0.85;;;16.50;74.30;;;;;;5007416;28;20060;-85
2024/02/01 13:17:25;;;;;;;0.60;0.60;;;16.50;74.30;;;;;;4985022;28;20049;-85
2024/02/01 13:19:50;;;;;;;1.52;0.90;;;16.50;74.40;;;;;;5008149;28;20076;-85
2024/02/01 13:22:16;;;;;;;0.40;0.40;;;16.50;74.40;;;;;;5015914;28;20042;-85
2024/02/01 13:24:45;;;;;;;0.73;0.55;;;16.50;74.00;;;;;;5005795;28;20514;-85
2024/02/01 13:27:11;;;;;;;0.73;0.40;;;16.50;74.00;;;;;;5018268;28;20293;-86
2024/02/01 13:29:37;;;;;;;1.35;0.40;;;16.50;74.10;;;;;;4989401;28;20635;-85
2024/02/01 13:32:08;;;;;;;0.43;0.43;;;16.50;74.90;;;;;;4985676;28;20056;-85
2024/02/01 13:34:37;;;;;;;0.60;0.60;;;16.50;73.90;;;;;;4986464;28;20575;-85
2024/02/01 13:37:05;;;;;;;0.50;0.50;;;16.50;74.90;;;;;;5014575;28;20526;-85
2024/02/01 13:39:33;;;;;;;0.43;0.43;;;16.50;74.00;;;;;;5022401;28;20044;-86
2024/02/01 13:42:02;;;;;;;1.33;0.30;;;16.50;73.90;;;;;;5024430;28;20069;-86
2024/02/01 13:44:32;;;;;;;1.27;0.40;;;16.50;74.00;;;;;;4988518;28;20068;-85